Time;durP1;ratioP1;P1;durP2;ratioP2;P2;SDS_P1;SDS_P2;PMS_P1;PMS_P2;Temp;Humidity;BMP_temperature;BMP_pressure;BME280_temperature;BME280_humidity;BME280_pressure;Samples;Min_cycle;Max_cycle;Signal;HPM_P1;HPM_P2
2021/08/20 00:00:09;;;;;;;3.57;1.60;;;18.20;99.90;;;;;;4994080;28;20251;-76
2021/08/20 00:02:35;;;;;;;3.30;1.63;;;18.20;99.90;;;;;;4994208;28;20168;-76
2021/08/20 00:05:10;;;;;;;1.53;1.17;;;18.10;99.90;;;;;;4994013;28;20183;-75
2021/08/20 00:07:36;;;;;;;1.50;1.40;;;18.10;99.90;;;;;;4976364;28;20202;-76
2021/08/20 00:10:03;;;;;;;1.53;1.30;;;18.10;99.90;;;;;;4994048;28;20190;-74
2021/08/20 00:12:32;;;;;;;2.00;1.50;;;18.10;99.90;;;;;;4976499;28;20516;-73
2021/08/20 00:15:01;;;;;;;1.83;1.43;;;18.00;99.90;;;;;;4994061;28;20175;-73
2021/08/20 00:17:29;;;;;;;1.70;1.50;;;18.10;99.90;;;;;;4976330;28;20204;-76
2021/08/20 00:19:55;;;;;;;2.27;1.60;;;18.10;99.90;;;;;;4994019;28;20264;-76
2021/08/20 00:22:22;;;;;;;1.63;1.30;;;18.10;99.90;;;;;;4993927;28;20179;-76
2021/08/20 00:24:48;;;;;;;1.57;1.47;;;18.10;99.90;;;;;;4993691;28;20180;-76
2021/08/20 00:27:14;;;;;;;1.83;1.70;;;18.00;99.90;;;;;;4975805;28;20199;-76
2021/08/20 00:29:40;;;;;;;1.60;1.37;;;18.10;99.90;;;;;;4976368;28;20184;-75
2021/08/20 00:32:06;;;;;;;1.60;1.37;;;18.00;99.90;;;;;;4993930;28;20187;-74
2021/08/20 00:34:32;;;;;;;1.37;1.27;;;18.00;99.90;;;;;;4976474;28;20211;-76
2021/08/20 00:36:57;;;;;;;1.70;1.60;;;18.00;99.90;;;;;;4993539;28;20233;-76
2021/08/20 00:39:23;;;;;;;1.60;1.40;;;18.00;99.90;;;;;;4993710;28;20176;-76
2021/08/20 00:41:49;;;;;;;2.17;1.53;;;18.00;99.90;;;;;;4976245;28;20176;-76
2021/08/20 00:44:15;;;;;;;1.90;1.40;;;18.00;99.90;;;;;;4993670;28;20264;-76
2021/08/20 00:46:43;;;;;;;2.77;1.60;;;18.00;99.90;;;;;;4976161;28;20304;-76
2021/08/20 00:49:10;;;;;;;1.60;1.50;;;18.00;99.90;;;;;;4993442;28;20190;-76
2021/08/20 00:51:38;;;;;;;2.67;1.30;;;18.00;99.90;;;;;;4993788;28;20191;-76
2021/08/20 00:54:08;;;;;;;2.73;1.47;;;18.00;99.90;;;;;;4993571;28;20180;-76
2021/08/20 00:56:36;;;;;;;1.67;1.57;;;18.00;99.90;;;;;;4993310;28;20204;-76
2021/08/20 00:59:02;;;;;;;2.23;1.30;;;18.00;99.90;;;;;;4993448;28;20646;-75
2021/08/20 01:01:32;;;;;;;1.50;1.20;;;17.90;99.90;;;;;;4993609;28;20187;-73
2021/08/20 01:03:58;;;;;;;2.00;1.50;;;17.90;99.90;;;;;;4976012;28;20176;-76
2021/08/20 01:06:28;;;;;;;1.40;1.30;;;17.90;99.90;;;;;;4993096;28;20212;-74
2021/08/20 01:08:54;;;;;;;2.03;1.27;;;17.90;99.90;;;;;;4993550;28;20234;-75
2021/08/20 01:11:27;;;;;;;3.00;1.30;;;17.80;99.90;;;;;;4993360;28;20254;-74
2021/08/20 01:13:56;;;;;;;2.80;1.77;;;17.80;99.90;;;;;;4993530;28;20550;-76
2021/08/20 01:16:22;;;;;;;2.47;1.40;;;17.80;99.90;;;;;;4992918;28;20328;-76
2021/08/20 01:18:49;;;;;;;2.57;1.77;;;17.90;99.90;;;;;;4993362;28;20208;-76
2021/08/20 01:21:33;;;;;;;1.20;1.10;;;17.90;99.90;;;;;;4975855;28;20180;-76
2021/08/20 01:24:03;;;;;;;2.13;1.60;;;17.90;99.90;;;;;;4994003;28;20543;-73
2021/08/20 01:26:33;;;;;;;2.07;1.53;;;17.90;99.90;;;;;;4997157;28;20196;-76
2021/08/20 01:29:00;;;;;;;2.90;1.53;;;17.90;99.90;;;;;;4980215;28;20589;-76
2021/08/20 01:31:25;;;;;;;1.97;1.60;;;17.80;99.90;;;;;;4996827;28;20186;-75
2021/08/20 01:33:53;;;;;;;1.73;1.50;;;17.80;99.90;;;;;;4996285;28;20270;-74
2021/08/20 01:36:18;;;;;;;1.67;1.57;;;17.80;99.90;;;;;;4996415;28;20211;-76
2021/08/20 01:38:51;;;;;;;1.50;1.40;;;17.90;99.90;;;;;;4979251;28;20183;-76
2021/08/20 01:41:20;;;;;;;2.00;1.40;;;17.90;99.90;;;;;;4979237;28;20183;-76
2021/08/20 01:43:46;;;;;;;1.20;1.10;;;17.80;99.90;;;;;;4996614;28;20179;-76
2021/08/20 01:46:12;;;;;;;2.30;1.57;;;17.80;99.90;;;;;;4996458;28;20286;-76
2021/08/20 01:48:50;;;;;;;1.70;1.60;;;17.80;99.90;;;;;;4979000;28;20262;-76
2021/08/20 01:51:17;;;;;;;1.40;1.30;;;17.80;99.90;;;;;;4987078;28;20183;-76
2021/08/20 01:53:44;;;;;;;3.03;1.60;;;17.80;99.90;;;;;;4981942;28;20206;-76
2021/08/20 01:56:22;;;;;;;1.40;1.30;;;17.80;99.90;;;;;;4999513;28;20635;-76
2021/08/20 01:58:49;;;;;;;1.60;1.50;;;17.80;99.90;;;;;;4996779;28;20576;-77
2021/08/20 02:01:15;;;;;;;2.40;1.80;;;17.80;99.90;;;;;;4977017;28;20179;-76
2021/08/20 02:03:41;;;;;;;2.00;1.30;;;17.80;99.90;;;;;;4996183;28;20267;-76
2021/08/20 02:06:08;;;;;;;1.80;1.40;;;17.80;99.90;;;;;;4978496;28;20294;-76
2021/08/20 02:08:33;;;;;;;3.43;1.80;;;17.70;99.90;;;;;;4978264;28;20219;-76
2021/08/20 02:10:59;;;;;;;1.97;1.50;;;17.70;99.90;;;;;;4995671;28;20654;-76
2021/08/20 02:13:25;;;;;;;2.20;1.67;;;17.70;99.90;;;;;;4996183;28;20192;-76
2021/08/20 02:15:51;;;;;;;1.87;1.30;;;17.70;99.90;;;;;;4995755;28;20239;-76
2021/08/20 02:18:20;;;;;;;1.83;1.70;;;17.70;99.90;;;;;;4978536;28;20217;-74
2021/08/20 02:20:46;;;;;;;2.90;1.70;;;17.70;99.90;;;;;;4995850;28;20288;-76
2021/08/20 02:23:12;;;;;;;1.83;1.53;;;17.70;99.90;;;;;;4978769;28;20326;-76
2021/08/20 02:25:38;;;;;;;1.70;1.60;;;17.70;99.90;;;;;;4978434;28;20258;-75
2021/08/20 02:28:05;;;;;;;1.53;1.43;;;17.70;99.90;;;;;;4995716;28;20203;-76
2021/08/20 02:30:30;;;;;;;1.60;1.50;;;17.70;99.90;;;;;;4996017;28;20585;-76
2021/08/20 02:32:56;;;;;;;2.93;1.77;;;17.70;99.90;;;;;;4978162;28;20179;-76
2021/08/20 02:35:23;;;;;;;2.93;1.50;;;17.70;99.90;;;;;;4995057;28;20639;-74
2021/08/20 02:37:49;;;;;;;1.67;1.43;;;17.80;99.90;;;;;;4995505;28;20245;-76
2021/08/20 02:40:15;;;;;;;3.00;1.80;;;17.80;99.90;;;;;;4978052;28;20214;-76
2021/08/20 02:42:41;;;;;;;1.70;1.43;;;17.70;99.90;;;;;;4978067;28;20183;-76
2021/08/20 02:45:07;;;;;;;1.50;1.40;;;17.70;99.90;;;;;;4995370;28;20654;-75
2021/08/20 02:47:36;;;;;;;3.53;1.70;;;17.70;99.90;;;;;;4977888;28;20207;-74
2021/08/20 02:50:03;;;;;;;1.57;1.47;;;17.70;99.90;;;;;;4995145;28;20190;-76
2021/08/20 02:52:32;;;;;;;2.17;1.57;;;17.70;99.90;;;;;;4995232;28;20188;-74
2021/08/20 02:54:57;;;;;;;2.10;1.63;;;17.70;99.90;;;;;;4995133;28;20553;-78
2021/08/20 02:57:27;;;;;;;3.60;1.63;;;17.70;99.90;;;;;;4977813;28;20200;-77
2021/08/20 02:59:56;;;;;;;2.10;1.63;;;17.70;99.90;;;;;;4993991;28;20220;-78
2021/08/20 03:02:22;;;;;;;1.90;1.47;;;17.70;99.90;;;;;;4993472;28;20190;-77
2021/08/20 03:04:48;;;;;;;2.67;1.83;;;17.70;99.90;;;;;;4976274;28;20268;-77
2021/08/20 03:07:14;;;;;;;1.63;1.53;;;17.70;99.90;;;;;;4994260;28;20310;-78
2021/08/20 03:09:40;;;;;;;1.53;1.43;;;17.70;99.90;;;;;;4995176;28;20176;-77
2021/08/20 03:12:06;;;;;;;2.80;1.63;;;17.70;99.90;;;;;;4977820;28;20212;-77
2021/08/20 03:14:32;;;;;;;2.33;1.63;;;17.70;99.90;;;;;;4994863;28;20180;-77
2021/08/20 03:16:57;;;;;;;2.50;1.90;;;17.70;99.90;;;;;;4994804;28;20211;-77
2021/08/20 03:19:23;;;;;;;1.63;1.53;;;17.60;99.90;;;;;;4994940;28;20211;-77
2021/08/20 03:21:49;;;;;;;1.97;1.77;;;17.60;99.90;;;;;;4995036;28;20207;-77
2021/08/20 03:24:15;;;;;;;1.80;1.30;;;17.60;99.90;;;;;;4977585;28;20207;-77
2021/08/20 03:26:41;;;;;;;3.20;1.47;;;17.60;99.90;;;;;;4977471;28;20210;-77
2021/08/20 03:29:10;;;;;;;1.77;1.50;;;17.60;99.90;;;;;;4995209;28;20195;-75
2021/08/20 03:31:35;;;;;;;1.97;1.73;;;17.60;99.90;;;;;;4977484;28;20184;-77
2021/08/20 03:34:01;;;;;;;1.67;1.57;;;17.60;99.90;;;;;;4994444;28;20795;-77
2021/08/20 03:36:27;;;;;;;1.53;1.43;;;17.60;99.90;;;;;;4994686;28;20208;-77
2021/08/20 03:38:56;;;;;;;2.00;1.77;;;17.60;99.90;;;;;;4977444;28;20183;-77
2021/08/20 03:41:22;;;;;;;2.50;1.50;;;17.60;99.90;;;;;;4994722;28;20709;-75
2021/08/20 03:43:51;;;;;;;1.77;1.67;;;17.60;99.90;;;;;;4977023;28;20176;-77
2021/08/20 03:46:17;;;;;;;1.50;1.40;;;17.60;99.90;;;;;;4994305;28;20200;-76
2021/08/20 03:48:44;;;;;;;2.43;1.80;;;17.60;99.90;;;;;;4994272;28;20183;-77
2021/08/20 03:51:13;;;;;;;2.77;2.20;;;17.60;99.90;;;;;;4994494;28;20178;-77
2021/08/20 03:53:39;;;;;;;2.93;1.80;;;17.60;99.90;;;;;;4977015;28;20180;-77
2021/08/20 03:56:05;;;;;;;3.20;1.63;;;17.60;99.90;;;;;;4994107;28;20239;-77
2021/08/20 03:58:31;;;;;;;1.93;1.73;;;17.60;99.90;;;;;;4994359;28;20222;-75
2021/08/20 04:00:56;;;;;;;2.70;1.70;;;17.60;99.90;;;;;;4975730;28;20215;-77
2021/08/20 04:03:23;;;;;;;1.37;1.27;;;17.60;99.90;;;;;;4972938;28;20666;-76
2021/08/20 04:05:49;;;;;;;2.17;1.70;;;17.60;99.90;;;;;;4987639;28;20230;-77
2021/08/20 04:08:16;;;;;;;1.90;1.70;;;17.60;99.90;;;;;;4993738;28;20200;-78
2021/08/20 04:10:42;;;;;;;2.17;1.60;;;17.50;99.90;;;;;;4992926;28;20175;-78
2021/08/20 04:13:08;;;;;;;1.70;1.60;;;17.50;99.90;;;;;;4976791;28;20184;-77
2021/08/20 04:15:35;;;;;;;1.70;1.60;;;17.50;99.90;;;;;;4975704;28;20254;-77
2021/08/20 04:18:00;;;;;;;2.80;1.77;;;17.50;99.90;;;;;;4976650;28;20273;-77
2021/08/20 04:20:26;;;;;;;2.20;1.63;;;17.40;99.90;;;;;;4994183;28;20172;-77
2021/08/20 04:22:55;;;;;;;2.30;1.97;;;17.30;99.90;;;;;;4993791;28;20190;-77
2021/08/20 04:25:21;;;;;;;2.00;1.70;;;17.30;99.90;;;;;;4976740;28;20677;-77
2021/08/20 04:27:52;;;;;;;3.07;1.47;;;17.30;99.90;;;;;;4993925;28;20180;-75
2021/08/20 04:30:19;;;;;;;2.23;2.03;;;17.30;99.90;;;;;;4994274;28;20183;-77
2021/08/20 04:32:51;;;;;;;2.20;1.73;;;17.30;99.90;;;;;;4994142;28;20592;-76
2021/08/20 04:35:16;;;;;;;3.67;2.20;;;17.30;99.90;;;;;;4993787;28;20524;-77
2021/08/20 04:37:42;;;;;;;3.73;1.77;;;17.30;99.90;;;;;;4993971;28;20207;-77
2021/08/20 04:40:08;;;;;;;1.70;1.60;;;17.30;99.90;;;;;;4976455;28;20261;-77
2021/08/20 04:42:38;;;;;;;2.10;1.90;;;17.30;99.90;;;;;;4976378;28;20183;-77
2021/08/20 04:45:05;;;;;;;2.00;1.73;;;17.20;99.90;;;;;;4993800;28;20184;-77
2021/08/20 04:47:30;;;;;;;4.00;2.20;;;17.30;99.90;;;;;;4993929;28;20312;-77
2021/08/20 04:49:56;;;;;;;2.03;1.83;;;17.20;99.90;;;;;;4993949;28;20184;-77
2021/08/20 04:52:22;;;;;;;1.57;1.47;;;17.10;99.90;;;;;;4976436;28;20246;-77
2021/08/20 04:54:48;;;;;;;1.60;1.50;;;17.10;99.90;;;;;;4994143;28;20261;-77
2021/08/20 04:57:13;;;;;;;3.90;1.87;;;17.10;99.90;;;;;;5018540;23;20199;-81
2021/08/20 04:59:39;;;;;;;2.60;1.60;;;17.00;99.90;;;;;;4998694;28;20226;-83
2021/08/20 05:02:05;;;;;;;3.03;1.70;;;17.00;99.90;;;;;;5007524;28;20179;-82
2021/08/20 05:04:34;;;;;;;3.60;1.80;;;17.00;99.90;;;;;;5007028;28;20247;-83
2021/08/20 05:07:00;;;;;;;2.20;1.60;;;17.00;99.90;;;;;;5006815;28;20264;-84
2021/08/20 05:09:26;;;;;;;2.47;2.03;;;17.00;99.90;;;;;;4972921;28;20184;-81
2021/08/20 05:11:52;;;;;;;2.07;1.83;;;16.90;99.90;;;;;;4995543;28;20191;-80
2021/08/20 05:14:18;;;;;;;1.70;1.60;;;17.00;99.90;;;;;;5005218;28;20207;-82
2021/08/20 05:16:47;;;;;;;4.27;1.93;;;17.10;99.90;;;;;;4986533;28;20608;-81
2021/08/20 05:19:16;;;;;;;1.93;1.60;;;17.00;99.90;;;;;;5000724;28;20222;-83
2021/08/20 05:21:42;;;;;;;2.07;1.87;;;17.10;99.90;;;;;;4956593;28;20276;-83
2021/08/20 05:24:07;;;;;;;3.00;1.63;;;17.10;99.90;;;;;;4986985;28;20650;-82
2021/08/20 05:26:33;;;;;;;1.73;1.63;;;17.20;99.90;;;;;;4985671;28;20176;-82
2021/08/20 05:28:59;;;;;;;2.10;1.90;;;17.20;99.90;;;;;;4996667;28;20227;-80
2021/08/20 05:31:25;;;;;;;2.47;2.20;;;17.30;99.90;;;;;;4990370;28;20240;-83
2021/08/20 05:33:50;;;;;;;3.80;2.00;;;17.30;99.90;;;;;;4994832;28;20178;-83
2021/08/20 05:36:16;;;;;;;2.30;2.10;;;17.30;99.90;;;;;;4997538;28;20348;-83
2021/08/20 05:38:41;;;;;;;2.03;1.93;;;17.40;99.90;;;;;;5006418;28;20732;-81
2021/08/20 05:41:07;;;;;;;3.00;2.00;;;17.40;99.90;;;;;;5006097;28;20262;-82
2021/08/20 05:43:36;;;;;;;3.57;1.80;;;17.50;99.90;;;;;;5006122;28;20171;-82
2021/08/20 05:46:03;;;;;;;2.17;1.97;;;17.50;99.90;;;;;;4996078;28;20549;-82
2021/08/20 05:48:29;;;;;;;2.53;1.87;;;17.50;99.90;;;;;;4988788;28;20204;-82
2021/08/20 05:50:55;;;;;;;4.77;2.57;;;17.60;99.90;;;;;;4979469;28;20180;-82
2021/08/20 05:53:20;;;;;;;3.37;2.50;;;17.60;99.90;;;;;;5004670;28;20187;-82
2021/08/20 05:55:46;;;;;;;6.07;2.60;;;17.70;99.90;;;;;;4968474;28;20199;-82
2021/08/20 05:58:12;;;;;;;1.73;1.63;;;17.70;99.90;;;;;;4997061;28;20216;-82
2021/08/20 06:00:37;;;;;;;2.50;1.80;;;17.70;99.90;;;;;;5005381;28;20178;-82
2021/08/20 06:03:03;;;;;;;2.60;1.83;;;17.80;99.90;;;;;;4992992;28;20702;-83
2021/08/20 06:05:29;;;;;;;1.80;1.70;;;17.80;99.90;;;;;;4984001;28;20231;-82
2021/08/20 06:07:55;;;;;;;3.20;1.87;;;17.90;99.90;;;;;;4984366;28;20252;-82
2021/08/20 06:10:20;;;;;;;2.93;1.90;;;17.90;99.90;;;;;;4985809;28;20180;-83
2021/08/20 06:12:49;;;;;;;4.00;1.50;;;18.00;99.90;;;;;;4987478;28;20187;-80
2021/08/20 06:15:15;;;;;;;6.57;1.83;;;18.00;99.90;;;;;;4982859;28;20192;-81
2021/08/20 06:17:43;;;;;;;3.13;1.70;;;18.00;99.90;;;;;;4981175;28;20272;-83
2021/08/20 06:20:10;;;;;;;1.87;1.77;;;18.00;99.90;;;;;;4965638;28;20173;-83
2021/08/20 06:22:36;;;;;;;1.53;1.40;;;18.10;99.90;;;;;;4981266;28;20180;-79
2021/08/20 06:25:01;;;;;;;2.37;1.60;;;18.20;99.90;;;;;;4985591;28;20188;-83
2021/08/20 06:27:27;;;;;;;1.40;1.30;;;18.20;99.90;;;;;;4967490;28;20196;-84
2021/08/20 06:29:52;;;;;;;3.97;1.70;;;18.30;99.90;;;;;;4984771;28;20698;-83
2021/08/20 06:32:18;;;;;;;2.50;1.37;;;18.30;99.90;;;;;;4983745;28;20185;-83
2021/08/20 06:34:44;;;;;;;3.20;1.70;;;18.40;99.90;;;;;;4983847;28;20211;-83
2021/08/20 06:37:09;;;;;;;2.67;1.87;;;18.40;99.90;;;;;;4963907;28;20212;-83
2021/08/20 06:39:35;;;;;;;2.17;1.30;;;18.40;99.90;;;;;;4992577;28;20239;-82
2021/08/20 06:42:01;;;;;;;1.63;1.50;;;18.40;99.90;;;;;;4969138;28;20176;-82
2021/08/20 06:44:28;;;;;;;1.70;1.60;;;18.40;99.90;;;;;;4983445;28;20225;-82
2021/08/20 06:46:53;;;;;;;1.60;1.50;;;18.40;99.90;;;;;;5000133;28;20190;-81
2021/08/20 06:49:19;;;;;;;2.20;1.43;;;18.50;99.90;;;;;;4980379;28;20659;-83
2021/08/20 06:51:45;;;;;;;1.57;1.40;;;18.50;99.90;;;;;;4972932;28;20192;-83
2021/08/20 06:54:10;;;;;;;2.03;1.83;;;18.60;99.90;;;;;;4999551;28;20185;-83
2021/08/20 06:56:36;;;;;;;1.40;1.30;;;18.60;99.90;;;;;;4985005;28;20207;-82
2021/08/20 06:59:02;;;;;;;4.50;1.60;;;18.60;99.90;;;;;;4967868;28;20248;-82
2021/08/20 07:01:28;;;;;;;3.13;1.50;;;18.70;99.90;;;;;;4984959;28;20180;-81
2021/08/20 07:03:55;;;;;;;1.33;1.13;;;18.80;99.90;;;;;;5001917;28;20184;-81
2021/08/20 07:06:23;;;;;;;1.40;1.30;;;18.70;99.90;;;;;;4987450;28;20188;-82
2021/08/20 07:08:53;;;;;;;2.47;1.57;;;18.70;99.90;;;;;;4986520;28;20215;-83
2021/08/20 07:11:20;;;;;;;1.73;1.50;;;18.80;99.90;;;;;;4986681;28;20180;-82
2021/08/20 07:13:45;;;;;;;1.70;1.60;;;18.80;99.90;;;;;;5004343;28;20263;-82
2021/08/20 07:16:11;;;;;;;1.50;1.40;;;18.80;99.90;;;;;;5002247;28;20248;-82
2021/08/20 07:18:37;;;;;;;2.00;1.60;;;18.80;99.90;;;;;;4986418;28;20207;-81
2021/08/20 07:21:03;;;;;;;1.70;1.60;;;18.90;99.90;;;;;;5004118;28;20180;-82
2021/08/20 07:23:29;;;;;;;3.70;1.57;;;18.90;99.90;;;;;;5003636;28;20194;-83
2021/08/20 07:25:55;;;;;;;2.10;1.80;;;19.00;99.90;;;;;;4994723;28;20233;-83
2021/08/20 07:28:21;;;;;;;3.70;1.50;;;19.10;99.90;;;;;;4983496;28;20291;-82
2021/08/20 07:30:46;;;;;;;3.10;1.70;;;19.10;99.90;;;;;;5002116;28;20203;-83
2021/08/20 07:33:13;;;;;;;2.47;1.43;;;19.10;99.90;;;;;;5000713;28;20188;-82
2021/08/20 07:35:38;;;;;;;2.10;1.50;;;19.20;99.90;;;;;;5002133;28;20176;-83
2021/08/20 07:38:04;;;;;;;2.10;1.90;;;19.30;99.90;;;;;;5002192;28;20749;-83
2021/08/20 07:40:30;;;;;;;2.77;2.27;;;19.20;99.90;;;;;;4974094;28;20176;-83
2021/08/20 07:42:56;;;;;;;2.00;1.60;;;19.30;99.90;;;;;;5001970;28;20176;-83
2021/08/20 07:45:21;;;;;;;2.80;1.80;;;19.30;99.90;;;;;;4982769;28;20184;-82
2021/08/20 07:47:50;;;;;;;1.73;1.63;;;19.40;99.90;;;;;;4989758;28;20199;-82
2021/08/20 07:50:16;;;;;;;2.80;1.60;;;19.50;99.90;;;;;;4989515;28;20180;-83
2021/08/20 07:52:44;;;;;;;1.30;1.20;;;19.60;99.90;;;;;;5001502;28;20749;-83
2021/08/20 07:55:10;;;;;;;1.80;1.40;;;19.70;99.90;;;;;;5002431;28;20183;-83
2021/08/20 07:57:49;;;;;;;2.37;1.60;;;19.80;99.90;;;;;;5000722;28;20211;-83
2021/08/20 08:00:18;;;;;;;1.40;1.30;;;19.90;99.90;;;;;;4984028;28;20184;-83
2021/08/20 08:02:43;;;;;;;3.87;1.20;;;19.90;99.90;;;;;;4983597;28;20186;-80
2021/08/20 08:05:09;;;;;;;1.83;1.63;;;20.00;99.90;;;;;;4991007;28;20228;-83
2021/08/20 08:07:35;;;;;;;1.40;1.30;;;20.00;99.90;;;;;;4994772;28;20266;-82
2021/08/20 08:10:01;;;;;;;2.47;1.53;;;20.00;99.90;;;;;;4989956;28;20196;-83
2021/08/20 08:12:27;;;;;;;1.60;1.50;;;20.10;99.90;;;;;;4983131;28;20181;-82
2021/08/20 08:14:53;;;;;;;3.00;1.20;;;20.10;99.90;;;;;;4983651;28;20177;-83
2021/08/20 08:17:18;;;;;;;1.43;1.33;;;20.10;99.90;;;;;;4981776;28;20671;-82
2021/08/20 08:19:44;;;;;;;2.20;1.30;;;20.20;99.90;;;;;;4981050;28;20192;-83
2021/08/20 08:22:12;;;;;;;2.33;1.70;;;20.20;99.90;;;;;;4979646;28;20180;-83
2021/08/20 08:24:37;;;;;;;1.67;1.53;;;20.20;99.90;;;;;;4980615;28;20183;-83
2021/08/20 08:27:03;;;;;;;2.40;1.53;;;20.30;99.90;;;;;;4987308;28;20274;-83
2021/08/20 08:29:29;;;;;;;1.67;1.57;;;20.30;99.90;;;;;;4999011;28;20190;-81
2021/08/20 08:31:55;;;;;;;29.23;2.30;;;20.40;99.90;;;;;;4999592;28;20187;-82
2021/08/20 08:34:20;;;;;;;2.20;2.00;;;20.50;99.90;;;;;;4997160;28;20270;-83
2021/08/20 08:36:46;;;;;;;1.87;1.77;;;20.50;99.90;;;;;;4987239;28;20191;-83
2021/08/20 08:39:11;;;;;;;4.63;2.20;;;20.60;99.90;;;;;;4995379;28;20222;-83
2021/08/20 08:41:37;;;;;;;4.50;2.43;;;20.60;99.90;;;;;;5005591;28;20184;-83
2021/08/20 08:44:04;;;;;;;3.53;2.50;;;20.70;99.90;;;;;;5006292;28;20175;-82
2021/08/20 08:46:36;;;;;;;3.27;2.97;;;20.70;99.90;;;;;;4990926;28;20184;-83
2021/08/20 08:49:03;;;;;;;2.60;2.40;;;20.80;99.90;;;;;;4991558;28;20572;-82
2021/08/20 08:51:28;;;;;;;4.10;2.67;;;20.80;99.90;;;;;;4999366;28;20191;-82
2021/08/20 08:53:57;;;;;;;2.87;2.67;;;;;;;;;;5000207;28;20184;-81
2021/08/20 08:56:23;;;;;;;3.17;2.87;;;21.00;99.90;;;;;;4986159;28;20192;-81
2021/08/20 08:58:49;;;;;;;3.03;2.73;;;21.00;99.90;;;;;;4986914;28;20218;-82
2021/08/20 09:01:38;;;;;;;3.40;3.10;;;21.00;99.90;;;;;;5006743;28;20202;-83
2021/08/20 09:04:10;;;;;;;6.43;3.10;;;21.10;99.90;;;;;;5004868;28;20627;-83
2021/08/20 09:06:40;;;;;;;2.73;2.47;;;21.10;99.90;;;;;;4987081;28;20277;-82
2021/08/20 09:09:09;;;;;;;3.50;3.07;;;21.30;99.90;;;;;;5000830;28;20200;-82
2021/08/20 09:11:34;;;;;;;2.70;2.50;;;21.40;99.90;;;;;;5009358;28;20240;-84
2021/08/20 09:14:00;;;;;;;4.07;3.43;;;21.50;99.90;;;;;;5012233;28;20308;-84
2021/08/20 09:16:40;;;;;;;3.73;3.30;;;21.50;99.90;;;;;;4990789;28;20207;-82
2021/08/20 09:19:18;;;;;;;3.50;3.00;;;21.60;99.90;;;;;;4987036;28;20718;-82
2021/08/20 09:21:54;;;;;;;3.63;3.33;;;21.60;99.90;;;;;;4964694;28;20179;-83
2021/08/20 09:24:42;;;;;;;3.57;3.20;;;21.60;99.90;;;;;;5006577;28;20280;-80
2021/08/20 09:27:24;;;;;;;3.33;2.57;;;21.60;99.90;;;;;;4984959;28;20200;-82
2021/08/20 09:29:55;;;;;;;2.87;2.67;;;21.60;99.90;;;;;;4988562;28;20179;-82
2021/08/20 09:32:21;;;;;;;4.73;3.10;;;21.70;99.90;;;;;;4994182;28;20176;-82
2021/08/20 09:34:58;;;;;;;4.30;3.90;;;21.70;99.90;;;;;;4986036;28;20203;-82
2021/08/20 09:37:28;;;;;;;4.33;3.37;;;21.70;99.90;;;;;;5004274;28;20206;-83
2021/08/20 09:40:06;;;;;;;3.53;3.23;;;21.70;99.90;;;;;;5001574;28;20183;-82
2021/08/20 09:42:33;;;;;;;3.10;2.80;;;21.60;99.90;;;;;;4983297;28;20169;-82
2021/08/20 09:45:10;;;;;;;5.70;2.87;;;21.60;99.90;;;;;;4983064;28;20201;-81
2021/08/20 09:47:47;;;;;;;3.43;3.13;;;21.70;99.90;;;;;;4979829;28;20761;-83
2021/08/20 09:50:13;;;;;;;3.50;3.20;;;21.60;99.90;;;;;;4962610;28;20605;-81
2021/08/20 09:52:39;;;;;;;3.67;3.30;;;21.60;99.90;;;;;;4979552;28;20240;-81
2021/08/20 09:55:05;;;;;;;3.20;3.00;;;21.70;99.90;;;;;;4978350;28;20180;-81
2021/08/20 09:57:32;;;;;;;3.87;3.40;;;21.70;99.90;;;;;;5000851;28;20294;-82
2021/08/20 09:59:58;;;;;;;3.10;2.70;;;21.80;99.90;;;;;;4987522;28;20177;-81
2021/08/20 10:02:26;;;;;;;6.27;3.43;;;21.90;99.90;;;;;;4985717;28;20533;-82
2021/08/20 10:04:57;;;;;;;3.20;2.73;;;21.90;99.90;;;;;;4993429;28;20259;-81
2021/08/20 10:07:27;;;;;;;4.57;3.73;;;22.00;99.90;;;;;;4963199;28;20215;-81
2021/08/20 10:09:54;;;;;;;3.27;2.83;;;22.10;99.90;;;;;;4987166;28;20172;-82
2021/08/20 10:12:25;;;;;;;3.67;3.00;;;22.10;99.90;;;;;;4994838;28;20218;-83
2021/08/20 10:14:52;;;;;;;5.37;3.17;;;22.20;99.90;;;;;;4997429;28;20255;-84
2021/08/20 10:17:18;;;;;;;3.47;3.00;;;22.30;99.90;;;;;;5007800;28;20200;-83
2021/08/20 10:19:45;;;;;;;4.17;3.10;;;22.30;99.90;;;;;;5006883;28;20206;-83
2021/08/20 10:22:11;;;;;;;3.63;3.10;;;22.40;99.90;;;;;;5006345;28;20184;-83
2021/08/20 10:24:37;;;;;;;6.50;3.70;;;22.40;99.90;;;;;;5003899;28;20172;-83
2021/08/20 10:27:05;;;;;;;7.00;4.33;;;22.40;99.90;;;;;;4985382;28;20242;-83
2021/08/20 10:29:40;;;;;;;5.97;3.63;;;22.60;99.90;;;;;;4999718;28;20184;-83
2021/08/20 10:32:08;;;;;;;4.83;3.50;;;22.70;99.90;;;;;;4988514;28;20516;-84
2021/08/20 10:34:39;;;;;;;3.40;3.10;;;22.90;99.90;;;;;;4986455;28;20718;-83
2021/08/20 10:37:12;;;;;;;3.60;3.30;;;23.00;99.90;;;;;;4982268;28;20192;-83
2021/08/20 10:39:47;;;;;;;3.70;3.40;;;23.10;99.90;;;;;;4989388;28;20173;-83
2021/08/20 10:42:17;;;;;;;6.70;3.60;;;23.10;99.90;;;;;;4973885;28;20202;-83
2021/08/20 10:44:45;;;;;;;4.10;3.10;;;23.20;99.90;;;;;;4967857;28;20184;-84
2021/08/20 10:47:25;;;;;;;3.97;3.63;;;23.30;99.90;;;;;;4984270;28;20191;-84
2021/08/20 10:50:06;;;;;;;4.37;3.27;;;23.30;99.90;;;;;;4965507;28;20188;-84
2021/08/20 10:52:33;;;;;;;4.43;3.63;;;23.40;99.90;;;;;;4971270;28;20235;-83
2021/08/20 10:54:59;;;;;;;4.30;3.87;;;;;;;;;;4972375;28;20239;-83
2021/08/20 10:57:34;;;;;;;6.00;3.83;;;23.60;99.90;;;;;;4983173;28;20212;-83
2021/08/20 11:00:07;;;;;;;3.90;3.47;;;23.80;99.90;;;;;;4956614;28;20671;-83
2021/08/20 11:02:39;;;;;;;4.20;3.80;;;23.80;99.90;;;;;;4975066;28;20259;-83
2021/08/20 11:05:10;;;;;;;4.33;3.40;;;23.90;99.90;;;;;;4967745;28;20185;-84
2021/08/20 11:07:36;;;;;;;3.90;3.53;;;23.90;99.90;;;;;;4987015;28;20671;-84
2021/08/20 11:10:07;;;;;;;4.93;3.70;;;23.90;99.90;;;;;;4975570;28;20328;-82
2021/08/20 11:12:38;;;;;;;4.03;3.33;;;23.90;99.90;;;;;;4982991;28;20180;-82
2021/08/20 11:15:26;;;;;;;3.37;3.07;;;24.10;99.90;;;;;;4958462;28;20191;-82
2021/08/20 11:18:05;;;;;;;3.47;3.20;;;24.10;99.90;;;;;;4980513;28;20228;-84
2021/08/20 11:20:33;;;;;;;4.10;3.20;;;24.20;99.90;;;;;;4979958;28;20204;-84
2021/08/20 11:23:07;;;;;;;4.97;3.20;;;24.50;99.90;;;;;;4977356;28;20223;-85
2021/08/20 11:25:48;;;;;;;3.60;3.30;;;24.70;99.90;;;;;;4986313;28;20203;-83
2021/08/20 11:28:24;;;;;;;3.50;3.20;;;24.70;99.90;;;;;;4986252;28;20192;-84
2021/08/20 11:31:10;;;;;;;5.53;3.20;;;24.80;99.90;;;;;;4971475;28;20177;-82
2021/08/20 11:33:38;;;;;;;3.83;3.43;;;24.90;99.90;;;;;;4976767;28;20177;-82
2021/08/20 11:36:21;;;;;;;3.57;3.27;;;24.90;99.90;;;;;;4978707;28;20188;-84
2021/08/20 11:38:48;;;;;;;3.27;2.97;;;25.30;99.90;;;;;;4979562;28;20204;-84
2021/08/20 11:41:35;;;;;;;3.67;3.30;;;25.30;99.90;;;;;;4959116;28;20224;-82
2021/08/20 11:44:05;;;;;;;3.80;3.50;;;25.40;99.90;;;;;;4973610;28;20209;-83
2021/08/20 11:46:53;;;;;;;3.30;3.00;;;25.40;99.90;;;;;;4970777;28;20192;-84
2021/08/20 11:49:28;;;;;;;3.50;3.20;;;25.60;99.90;;;;;;4962646;28;20291;-82
2021/08/20 11:52:04;;;;;;;3.77;3.47;;;25.60;99.90;;;;;;4962711;28;20572;-82
2021/08/20 11:54:34;;;;;;;4.97;3.03;;;25.50;99.90;;;;;;4977496;28;20200;-82
2021/08/20 11:57:00;;;;;;;4.43;3.00;;;25.60;99.90;;;;;;4943993;28;20215;-82
2021/08/20 11:59:26;;;;;;;3.73;3.10;;;25.60;99.90;;;;;;4970524;28;20204;-82
2021/08/20 12:02:02;;;;;;;6.80;3.27;;;25.80;99.90;;;;;;4972012;28;20212;-84
2021/08/20 12:04:28;;;;;;;3.97;3.13;;;26.20;99.90;;;;;;4972298;28;20208;-81
2021/08/20 12:06:55;;;;;;;3.20;3.00;;;27.50;99.90;;;;;;4978791;28;20690;-82
2021/08/20 12:09:23;;;;;;;4.90;3.10;;;26.10;99.90;;;;;;4954751;28;20211;-82
2021/08/20 12:11:56;;;;;;;4.87;3.20;;;26.10;99.90;;;;;;4980954;28;20179;-82
2021/08/20 12:14:24;;;;;;;4.13;2.70;;;26.20;99.90;;;;;;4969090;28;20188;-82
2021/08/20 12:16:52;;;;;;;3.70;3.40;;;26.40;99.90;;;;;;4982292;28;20211;-84
2021/08/20 12:19:43;;;;;;;4.33;2.87;;;26.40;99.90;;;;;;4971604;28;20201;-83
2021/08/20 12:22:11;;;;;;;4.90;3.47;;;26.10;99.90;;;;;;4976366;28;20265;-83
2021/08/20 12:24:38;;;;;;;4.03;3.63;;;26.00;99.90;;;;;;4955740;28;20181;-83
2021/08/20 12:27:10;;;;;;;5.73;3.30;;;25.80;99.90;;;;;;4987595;28;20220;-83
2021/08/20 12:29:35;;;;;;;3.17;2.93;;;25.90;99.90;;;;;;4978372;28;20255;-84
2021/08/20 12:32:01;;;;;;;3.40;3.10;;;26.20;99.90;;;;;;4971681;28;20239;-84
2021/08/20 12:34:32;;;;;;;3.30;3.00;;;26.40;99.90;;;;;;4977327;28;20184;-83
2021/08/20 12:37:00;;;;;;;3.07;2.87;;;26.40;99.90;;;;;;4974993;28;20243;-85
2021/08/20 12:39:45;;;;;;;3.13;2.93;;;26.30;99.90;;;;;;4977150;28;20244;-84
2021/08/20 12:42:23;;;;;;;5.47;2.97;;;26.20;99.90;;;;;;4973294;28;20243;-82
2021/08/20 12:45:12;;;;;;;3.80;3.50;;;26.20;99.90;;;;;;4976077;28;20172;-83
2021/08/20 12:47:39;;;;;;;3.20;2.90;;;26.00;99.90;;;;;;4971602;28;20234;-82
2021/08/20 12:50:06;;;;;;;3.37;3.07;;;26.20;99.90;;;;;;4955015;28;20599;-82
2021/08/20 12:52:32;;;;;;;3.37;3.07;;;26.40;99.90;;;;;;4974648;28;20195;-81